createdAt,value
2023-05-14T00:02:13.873Z,57.49
2023-05-14T00:05:15.831Z,57.60
2023-05-14T00:08:17.597Z,57.57
2023-05-14T00:11:19.351Z,57.70
2023-05-14T00:14:21.112Z,57.75
2023-05-14T00:17:23.100Z,57.79
2023-05-14T00:20:25.097Z,57.74
2023-05-14T00:23:27.031Z,57.65
2023-05-14T00:26:28.845Z,57.56
2023-05-14T00:29:30.556Z,57.65
2023-05-14T00:32:32.748Z,57.73
2023-05-14T00:35:35.297Z,57.86
2023-05-14T00:38:37.066Z,57.60
2023-05-14T00:41:39.445Z,57.85
2023-05-14T00:44:41.261Z,58.01
2023-05-14T00:47:43.628Z,57.72
2023-05-14T00:50:45.824Z,57.95
2023-05-14T00:53:48.182Z,58.14
2023-05-14T00:56:50.329Z,58.28
2023-05-14T00:59:52.435Z,58.41
2023-05-14T01:02:54.340Z,58.65
2023-05-14T01:06:21.048Z,58.57
2023-05-14T01:09:35.082Z,58.58
2023-05-14T01:13:10.437Z,58.65
2023-05-14T01:16:13.769Z,58.62
2023-05-14T01:19:46.695Z,58.63
2023-05-14T01:22:48.451Z,58.61
2023-05-14T01:25:50.210Z,58.67
2023-05-14T01:28:53.407Z,58.73
2023-05-14T01:31:58.153Z,58.81
2023-05-14T01:35:01.086Z,58.98
2023-05-14T01:38:11.052Z,59.01
2023-05-14T01:41:14.316Z,59.09
2023-05-14T01:44:17.643Z,59.17
2023-05-14T01:47:19.387Z,59.31
2023-05-14T01:50:21.231Z,59.31
2023-05-14T01:53:23.149Z,59.30
2023-05-14T01:56:25.190Z,59.34
2023-05-14T01:59:29.140Z,59.34
2023-05-14T02:02:31.116Z,59.43
2023-05-14T02:05:33.078Z,59.48
2023-05-14T02:08:34.758Z,59.45
2023-05-14T02:11:36.458Z,59.50
2023-05-14T02:14:38.240Z,59.39
2023-05-14T02:17:40.088Z,59.43
2023-05-14T02:20:41.822Z,59.51
2023-05-14T02:23:43.673Z,59.53
2023-05-14T02:26:45.710Z,59.69
2023-05-14T02:29:47.376Z,59.61
2023-05-14T02:32:49.202Z,59.54
2023-05-14T02:35:51.039Z,59.47
2023-05-14T02:38:52.816Z,59.44
2023-05-14T02:41:54.676Z,59.49
2023-05-14T02:44:56.526Z,59.50
2023-05-14T02:47:58.331Z,59.64
2023-05-14T02:51:00.008Z,59.76
2023-05-14T02:54:01.913Z,59.90
2023-05-14T02:57:04.009Z,59.87
2023-05-14T03:00:06.371Z,60.02
2023-05-14T03:03:08.498Z,60.01
2023-05-14T03:06:10.552Z,60.00
2023-05-14T03:09:12.254Z,59.68
2023-05-14T03:12:14.023Z,59.84
2023-05-14T03:15:15.754Z,60.00
2023-05-14T03:18:17.427Z,60.19
2023-05-14T03:21:21.105Z,60.33
2023-05-14T03:24:23.788Z,60.45
2023-05-14T03:27:25.580Z,60.60
2023-05-14T03:30:27.426Z,60.70
2023-05-14T03:33:29.227Z,60.82
2023-05-14T03:36:31.419Z,60.93
2023-05-14T03:39:33.290Z,61.00
2023-05-14T03:42:35.021Z,61.05
2023-05-14T03:45:38.076Z,61.07
2023-05-14T03:48:40.403Z,61.18
2023-05-14T03:51:42.188Z,61.22
2023-05-14T03:54:43.952Z,61.19
2023-05-14T03:57:46.154Z,61.11
2023-05-14T04:00:48.022Z,61.12
2023-05-14T04:03:50.132Z,61.09
2023-05-14T04:06:52.078Z,61.15
2023-05-14T04:09:53.854Z,61.25
2023-05-14T04:12:55.608Z,61.33
2023-05-14T04:16:00.008Z,61.39
2023-05-14T04:19:05.725Z,61.43
2023-05-14T04:22:07.503Z,61.49
2023-05-14T04:25:09.347Z,61.46
2023-05-14T04:28:11.256Z,61.65
2023-05-14T04:31:13.000Z,61.88
2023-05-14T04:34:14.860Z,61.99
2023-05-14T04:37:16.570Z,62.02
2023-05-14T04:40:18.432Z,62.14
2023-05-14T04:43:20.724Z,62.30
2023-05-14T04:46:22.404Z,62.36
2023-05-14T04:49:24.258Z,61.99
2023-05-14T04:52:26.106Z,62.09
2023-05-14T04:55:28.023Z,62.19
2023-05-14T04:58:34.575Z,62.24
2023-05-14T05:01:37.108Z,62.29
2023-05-14T05:04:38.903Z,62.25
2023-05-14T05:07:40.683Z,62.27
2023-05-14T05:10:42.515Z,62.20
2023-05-14T05:13:44.242Z,62.21
2023-05-14T05:16:49.432Z,62.35
2023-05-14T05:19:51.975Z,62.33
2023-05-14T05:22:53.706Z,62.40
2023-05-14T05:25:55.505Z,62.41
2023-05-14T05:28:57.222Z,62.27
2023-05-14T05:31:59.069Z,62.12
2023-05-14T05:35:00.867Z,61.77
2023-05-14T05:38:02.598Z,61.55
2023-05-14T05:41:04.299Z,61.58
2023-05-14T05:44:06.099Z,61.08
2023-05-14T05:47:07.784Z,60.79
2023-05-14T05:50:10.291Z,60.77
2023-05-14T05:53:12.068Z,60.45
2023-05-14T05:56:13.750Z,60.30
2023-05-14T05:59:15.457Z,59.88
2023-05-14T06:02:18.674Z,59.18
2023-05-14T06:05:20.646Z,58.86
2023-05-14T06:08:22.402Z,58.34
2023-05-14T06:11:24.248Z,58.17
2023-05-14T06:14:25.955Z,57.92
2023-05-14T06:17:27.607Z,57.44
2023-05-14T06:20:29.360Z,57.10
2023-05-14T06:23:31.325Z,56.74
2023-05-14T06:26:33.038Z,56.59
2023-05-14T06:29:34.685Z,56.80
2023-05-14T06:32:36.739Z,56.62
2023-05-14T06:35:38.469Z,56.54
2023-05-14T06:38:40.193Z,56.51
2023-05-14T06:41:41.901Z,56.20
2023-05-14T06:44:48.370Z,55.81
2023-05-14T06:47:50.196Z,55.33
2023-05-14T06:50:51.878Z,54.99
2023-05-14T06:53:54.903Z,54.39
2023-05-14T06:56:56.893Z,54.19
2023-05-14T06:59:58.753Z,54.04
2023-05-14T07:03:00.610Z,54.57
2023-05-14T07:06:02.274Z,53.53
2023-05-14T07:09:04.079Z,53.95
2023-05-14T07:12:06.456Z,53.44
2023-05-14T07:15:08.811Z,53.36
2023-05-14T07:18:10.510Z,53.00
2023-05-14T07:21:12.208Z,52.86
2023-05-14T07:24:13.950Z,52.61
2023-05-14T07:27:16.564Z,52.47
2023-05-14T07:30:18.647Z,52.20
2023-05-14T07:33:20.849Z,52.60
2023-05-14T07:36:22.611Z,52.74
2023-05-14T07:39:24.412Z,52.33
2023-05-14T07:42:35.243Z,52.22
2023-05-14T07:45:40.981Z,51.41
2023-05-14T07:48:42.697Z,51.54
2023-05-14T07:51:44.461Z,51.54
2023-05-14T07:54:46.098Z,51.48
2023-05-14T07:57:47.776Z,51.03
2023-05-14T08:00:49.504Z,50.81
2023-05-14T08:03:51.703Z,50.84
2023-05-14T08:06:53.826Z,50.52
2023-05-14T08:09:56.092Z,50.59
2023-05-14T08:12:57.653Z,50.32
2023-05-14T08:15:59.685Z,50.58
2023-05-14T08:19:01.435Z,50.05
2023-05-14T08:22:03.319Z,50.14
2023-05-14T08:25:05.810Z,49.64
2023-05-14T08:28:08.237Z,49.37
2023-05-14T08:31:10.041Z,49.43
2023-05-14T08:34:11.836Z,49.37
2023-05-14T08:37:13.481Z,49.40
2023-05-14T08:40:15.807Z,49.62
2023-05-14T08:43:23.390Z,49.53
2023-05-14T08:46:29.950Z,50.73
2023-05-14T08:49:42.690Z,49.45
2023-05-14T08:52:45.025Z,49.30
2023-05-14T08:55:47.632Z,49.12
2023-05-14T08:58:49.418Z,49.43
2023-05-14T09:01:56.189Z,49.21
2023-05-14T09:05:00.133Z,48.78
2023-05-14T09:08:01.989Z,48.79
2023-05-14T09:11:03.726Z,48.54
2023-05-14T09:14:05.518Z,48.33
2023-05-14T09:17:07.622Z,49.25
2023-05-14T09:20:11.515Z,49.21
2023-05-14T09:23:13.273Z,49.10
2023-05-14T09:26:17.994Z,48.60
2023-05-14T09:29:19.980Z,48.15
2023-05-14T09:32:21.674Z,48.28
2023-05-14T09:35:24.223Z,48.31
2023-05-14T09:38:32.942Z,47.34
2023-05-14T09:41:34.781Z,46.47
2023-05-14T09:44:37.764Z,47.01
2023-05-14T09:47:40.364Z,47.09
2023-05-14T09:50:46.238Z,46.79
2023-05-14T09:53:48.561Z,46.44
2023-05-14T09:56:51.005Z,46.03
2023-05-14T09:59:53.690Z,46.29
2023-05-14T10:02:57.882Z,45.51
2023-05-14T10:06:06.198Z,45.05
2023-05-14T10:09:13.185Z,45.92
2023-05-14T10:12:19.393Z,45.16
2023-05-14T10:15:40.115Z,44.61
2023-05-14T10:18:51.275Z,44.28
2023-05-14T10:22:00.297Z,44.07
2023-05-14T10:25:03.496Z,43.82
2023-05-14T10:28:06.080Z,44.71
2023-05-14T10:31:12.905Z,43.81
2023-05-14T10:34:44.162Z,44.15
2023-05-14T10:37:46.625Z,44.28
2023-05-14T10:40:53.553Z,44.19
2023-05-14T10:43:57.163Z,43.92
2023-05-14T10:46:59.266Z,43.38
2023-05-14T10:50:08.061Z,42.89
2023-05-14T10:53:13.518Z,43.18
2023-05-14T10:56:15.408Z,42.89
2023-05-14T10:59:17.366Z,42.59
2023-05-14T11:02:34.210Z,42.13
2023-05-14T11:05:38.138Z,42.65
2023-05-14T11:08:40.884Z,42.73
2023-05-14T11:11:42.753Z,43.86
2023-05-14T11:14:46.208Z,42.71
2023-05-14T11:17:50.247Z,42.00
2023-05-14T11:20:52.077Z,43.29
2023-05-14T11:23:55.110Z,42.64
2023-05-14T11:26:57.452Z,43.69
2023-05-14T11:30:00.332Z,42.47
2023-05-14T11:33:02.342Z,42.60
2023-05-14T11:36:04.520Z,42.53
2023-05-14T11:39:07.304Z,42.41
2023-05-14T11:42:16.097Z,43.08
2023-05-14T11:45:25.916Z,43.56
2023-05-14T11:48:27.601Z,43.80
2023-05-14T11:51:29.313Z,44.61
2023-05-14T11:54:32.561Z,44.02
2023-05-14T11:57:34.768Z,44.07
2023-05-14T12:00:37.262Z,43.70
2023-05-14T12:03:38.934Z,43.70
2023-05-14T12:06:40.754Z,43.66
2023-05-14T12:09:50.257Z,43.82
2023-05-14T12:12:51.999Z,44.40
2023-05-14T12:15:56.198Z,43.63
2023-05-14T12:19:01.354Z,43.28
2023-05-14T12:22:03.077Z,43.66
2023-05-14T12:25:12.221Z,44.19
2023-05-14T12:28:18.509Z,44.67
2023-05-14T12:31:30.728Z,45.07
2023-05-14T12:34:32.548Z,43.78
2023-05-14T12:37:36.625Z,43.59
2023-05-14T12:40:38.309Z,43.57
2023-05-14T12:43:42.552Z,44.09
2023-05-14T12:46:44.730Z,43.68
2023-05-14T12:49:46.508Z,43.62
2023-05-14T12:52:48.175Z,43.43
2023-05-14T12:55:49.839Z,43.58
2023-05-14T12:58:51.795Z,43.61
2023-05-14T13:01:53.552Z,43.39
2023-05-14T13:04:55.391Z,43.66
2023-05-14T13:07:59.080Z,44.01
2023-05-14T13:11:01.502Z,43.87
2023-05-14T13:14:04.209Z,44.50
2023-05-14T13:17:07.395Z,44.76
2023-05-14T13:20:09.960Z,44.61
2023-05-14T13:23:11.734Z,44.98
2023-05-14T13:26:13.780Z,45.27
2023-05-14T13:29:15.466Z,45.04
2023-05-14T13:32:17.147Z,44.68
2023-05-14T13:35:18.821Z,45.78
2023-05-14T13:38:21.171Z,45.24
2023-05-14T13:41:23.036Z,45.09
2023-05-14T13:44:25.130Z,45.13
2023-05-14T13:47:26.951Z,45.13
2023-05-14T13:50:28.814Z,45.18
2023-05-14T13:53:30.624Z,46.07
2023-05-14T13:56:32.354Z,46.39
2023-05-14T13:59:34.825Z,45.76
2023-05-14T14:02:36.634Z,46.81
2023-05-14T14:05:38.522Z,46.72
2023-05-14T14:08:40.251Z,47.29
2023-05-14T14:11:41.955Z,47.65
2023-05-14T14:14:43.688Z,48.58
2023-05-14T14:17:45.514Z,49.07
2023-05-14T14:20:47.466Z,48.64
2023-05-14T14:23:49.312Z,48.43
2023-05-14T14:26:51.063Z,48.85
2023-05-14T14:29:52.896Z,48.74
2023-05-14T14:32:54.766Z,48.98
2023-05-14T14:35:56.509Z,49.18
2023-05-14T14:38:58.247Z,49.37
2023-05-14T14:42:00.234Z,49.24
2023-05-14T14:45:02.122Z,49.63
2023-05-14T14:48:23.998Z,49.80
2023-05-14T14:51:26.179Z,49.37
2023-05-14T14:54:28.215Z,49.91
2023-05-14T14:57:30.309Z,49.65
2023-05-14T15:00:31.974Z,49.80
2023-05-14T15:03:33.755Z,49.35
2023-05-14T15:06:36.256Z,49.78
2023-05-14T15:09:38.085Z,49.90
2023-05-14T15:12:39.893Z,49.52
2023-05-14T15:15:41.680Z,50.03
2023-05-14T15:18:43.422Z,50.69
2023-05-14T15:21:45.758Z,51.85
2023-05-14T15:24:47.451Z,51.06
2023-05-14T15:27:50.049Z,50.27
2023-05-14T15:30:52.182Z,51.07
2023-05-14T15:33:55.369Z,51.23
2023-05-14T15:36:57.315Z,51.27
2023-05-14T15:39:59.284Z,50.76
2023-05-14T15:43:01.352Z,50.32
2023-05-14T15:46:03.125Z,50.35
2023-05-14T15:49:05.494Z,50.28
2023-05-14T15:52:07.320Z,50.51
2023-05-14T15:55:09.724Z,50.19
2023-05-14T15:58:12.197Z,50.12
2023-05-14T16:01:13.953Z,50.12
2023-05-14T16:04:15.651Z,49.88
2023-05-14T16:07:17.748Z,49.67
2023-05-14T16:10:20.428Z,49.50
2023-05-14T16:13:22.142Z,49.25
2023-05-14T16:16:24.526Z,49.48
2023-05-14T16:19:26.344Z,49.22
2023-05-14T16:22:31.809Z,49.38
2023-05-14T16:25:33.527Z,49.32
2023-05-14T16:28:35.695Z,49.36
2023-05-14T16:31:37.542Z,49.72
2023-05-14T16:34:39.930Z,49.59
2023-05-14T16:37:41.704Z,49.33
2023-05-14T16:40:43.633Z,49.29
2023-05-14T16:43:45.291Z,49.28
2023-05-14T16:46:47.481Z,49.37
2023-05-14T16:49:49.152Z,49.28
2023-05-14T16:52:50.911Z,49.31
2023-05-14T16:55:52.589Z,49.34
2023-05-14T16:58:55.129Z,49.36
2023-05-14T17:01:56.923Z,49.41
2023-05-14T17:04:58.913Z,49.87
2023-05-14T17:08:01.272Z,50.22
2023-05-14T17:11:04.986Z,50.12
2023-05-14T17:14:06.067Z,50.31
2023-05-14T17:17:07.745Z,50.14
2023-05-14T17:20:09.949Z,50.11
2023-05-14T17:23:11.564Z,50.45
2023-05-14T17:26:13.352Z,50.39
2023-05-14T17:29:15.085Z,50.97
2023-05-14T17:32:19.980Z,51.63
2023-05-14T17:35:21.950Z,51.56
2023-05-14T17:38:24.556Z,51.58
2023-05-14T17:41:26.238Z,51.71
2023-05-14T17:44:27.896Z,52.17
2023-05-14T17:47:29.718Z,52.57
2023-05-14T17:50:31.464Z,52.81
2023-05-14T17:53:33.974Z,53.31
2023-05-14T17:56:35.940Z,53.35
2023-05-14T17:59:37.675Z,53.46
2023-05-14T18:02:39.880Z,53.73
2023-05-14T18:05:41.654Z,53.80
2023-05-14T18:08:43.576Z,53.71
2023-05-14T18:11:45.385Z,54.38
2023-05-14T18:14:47.089Z,54.01
2023-05-14T18:17:48.978Z,54.75
2023-05-14T18:20:51.433Z,55.41
2023-05-14T18:23:53.698Z,55.49
2023-05-14T18:26:55.272Z,55.72
2023-05-14T18:29:56.989Z,55.36
2023-05-14T18:32:59.197Z,56.42
2023-05-14T18:36:01.107Z,57.74
2023-05-14T18:39:02.929Z,56.77
2023-05-14T18:42:05.249Z,57.61
2023-05-14T18:45:07.362Z,57.85
2023-05-14T18:48:09.726Z,58.49
2023-05-14T18:51:11.775Z,59.25
2023-05-14T18:54:13.516Z,59.57
2023-05-14T18:57:15.199Z,60.07
2023-05-14T19:00:17.108Z,60.46
2023-05-14T19:03:19.533Z,61.20
2023-05-14T19:06:21.336Z,61.94
2023-05-14T19:09:24.091Z,62.19
2023-05-14T19:12:27.021Z,62.82
2023-05-14T19:15:28.847Z,63.61
2023-05-14T19:18:30.610Z,63.80
2023-05-14T19:21:32.473Z,64.20
2023-05-14T19:24:34.420Z,64.70
2023-05-14T19:27:37.468Z,64.97
2023-05-14T19:30:39.224Z,65.67
2023-05-14T19:33:41.219Z,65.81
2023-05-14T19:36:42.924Z,65.95
2023-05-14T19:39:44.911Z,66.29
2023-05-14T19:42:47.128Z,66.70
2023-05-14T19:45:49.984Z,66.81
2023-05-14T19:48:51.768Z,67.25
2023-05-14T19:51:53.461Z,67.45
2023-05-14T19:54:55.130Z,67.80
2023-05-14T19:57:57.158Z,68.15
2023-05-14T20:01:00.121Z,68.44
2023-05-14T20:04:01.873Z,68.57
2023-05-14T20:07:04.202Z,68.71
2023-05-14T20:10:06.563Z,68.91
2023-05-14T20:13:08.997Z,68.21
2023-05-14T20:16:12.881Z,68.80
2023-05-14T20:19:15.629Z,69.05
2023-05-14T20:22:17.616Z,69.38
2023-05-14T20:25:20.292Z,69.63
2023-05-14T20:28:21.977Z,69.80
2023-05-14T20:31:23.767Z,70.20
2023-05-14T20:34:25.497Z,70.29
2023-05-14T20:37:31.998Z,70.30
2023-05-14T20:40:33.682Z,70.34
2023-05-14T20:43:35.724Z,70.59
2023-05-14T20:46:37.506Z,70.85
2023-05-14T20:49:40.030Z,70.74
2023-05-14T20:52:41.909Z,70.85
2023-05-14T20:55:44.157Z,70.85
2023-05-14T20:58:45.748Z,70.94
2023-05-14T21:01:47.504Z,70.33
2023-05-14T21:04:49.900Z,70.68
2023-05-14T21:07:51.667Z,70.88
2023-05-14T21:10:53.384Z,71.15
2023-05-14T21:13:55.193Z,71.25
2023-05-14T21:16:56.856Z,71.28
2023-05-14T21:19:58.589Z,71.45
2023-05-14T21:23:00.294Z,71.53
2023-05-14T21:26:02.140Z,71.59
2023-05-14T21:29:03.902Z,71.73
2023-05-14T21:32:05.926Z,71.80
2023-05-14T21:35:08.136Z,71.80
2023-05-14T21:38:10.182Z,71.96
2023-05-14T21:41:11.971Z,71.51
2023-05-14T21:44:13.663Z,71.71
2023-05-14T21:47:15.802Z,72.01
2023-05-14T21:50:17.919Z,72.05
2023-05-14T21:53:19.744Z,72.04
2023-05-14T21:56:21.906Z,72.15
2023-05-14T21:59:23.776Z,72.27
2023-05-14T22:02:25.845Z,72.34
2023-05-14T22:05:27.867Z,72.35
2023-05-14T22:08:30.422Z,72.42
2023-05-14T22:11:32.262Z,72.51
2023-05-14T22:14:33.975Z,72.58
2023-05-14T22:17:35.786Z,72.76
2023-05-14T22:20:37.693Z,72.81
2023-05-14T22:23:39.412Z,72.88
2023-05-14T22:26:41.375Z,73.03
2023-05-14T22:29:43.299Z,72.93
2023-05-14T22:32:45.216Z,72.86
2023-05-14T22:35:47.052Z,72.94
2023-05-14T22:38:48.733Z,72.99
2023-05-14T22:41:54.279Z,73.00
2023-05-14T22:44:56.012Z,73.07
2023-05-14T22:47:57.903Z,73.15
2023-05-14T22:50:59.651Z,73.22
2023-05-14T22:54:01.364Z,73.32
2023-05-14T22:57:03.422Z,73.19
2023-05-14T23:00:07.267Z,73.03
2023-05-14T23:03:08.980Z,72.95
2023-05-14T23:06:13.755Z,72.97
2023-05-14T23:09:15.419Z,72.95
2023-05-14T23:12:17.947Z,73.01
2023-05-14T23:15:19.646Z,73.03
2023-05-14T23:18:23.174Z,72.95
2023-05-14T23:21:24.960Z,72.96
2023-05-14T23:24:26.671Z,72.97
2023-05-14T23:27:28.400Z,73.07
2023-05-14T23:30:30.232Z,73.13
2023-05-14T23:33:31.897Z,73.18
2023-05-14T23:36:33.699Z,73.19
2023-05-14T23:39:35.640Z,73.20
2023-05-14T23:42:37.368Z,73.22
2023-05-14T23:45:39.132Z,73.16
2023-05-14T23:48:41.514Z,73.11
2023-05-14T23:51:43.204Z,73.18
2023-05-14T23:54:44.883Z,73.33
2023-05-14T23:57:47.427Z,73.29
